createdAt,value
2022-07-26T00:01:41.228Z,25.46
2022-07-26T00:07:01.827Z,25.47
2022-07-26T00:12:22.570Z,25.38
2022-07-26T00:17:43.243Z,25.35
2022-07-26T00:23:03.945Z,25.32
2022-07-26T00:28:24.676Z,25.25
2022-07-26T00:33:45.272Z,25.24
2022-07-26T00:39:06.348Z,25.23
2022-07-26T00:44:40.603Z,25.23
2022-07-26T00:50:01.724Z,25.25
2022-07-26T00:55:22.837Z,25.28
2022-07-26T01:00:43.741Z,25.27
2022-07-26T01:06:05.563Z,25.17
2022-07-26T01:11:26.224Z,25.12
2022-07-26T01:16:47.443Z,25.09
2022-07-26T01:22:13.885Z,25.07
2022-07-26T01:27:39.424Z,25.00
2022-07-26T01:33:00.719Z,24.96
2022-07-26T01:38:27.556Z,24.97
2022-07-26T01:43:48.132Z,24.90
2022-07-26T01:49:09.435Z,24.97
2022-07-26T01:54:30.495Z,24.86
2022-07-26T01:59:51.052Z,24.77
2022-07-26T02:05:12.657Z,24.71
2022-07-26T02:10:52.749Z,24.67
2022-07-26T02:16:15.140Z,24.58
2022-07-26T02:21:35.854Z,24.39
2022-07-26T02:26:57.638Z,24.23
2022-07-26T02:32:18.843Z,24.15
2022-07-26T02:37:43.830Z,24.10
2022-07-26T02:43:07.409Z,23.99
2022-07-26T02:48:28.159Z,23.96
2022-07-26T02:53:48.711Z,23.79
2022-07-26T02:59:09.320Z,23.69
2022-07-26T03:04:30.455Z,23.58
2022-07-26T03:09:51.056Z,23.42
2022-07-26T03:15:12.233Z,23.43
2022-07-26T03:20:32.949Z,23.43
2022-07-26T03:25:53.814Z,23.37
2022-07-26T03:31:14.756Z,23.26
2022-07-26T03:36:35.362Z,23.27
2022-07-26T03:41:55.957Z,23.16
2022-07-26T03:47:16.798Z,22.99
2022-07-26T03:52:37.469Z,22.99
2022-07-26T03:57:58.453Z,23.08
2022-07-26T04:03:19.237Z,23.24
2022-07-26T04:08:40.106Z,23.09
2022-07-26T04:14:01.249Z,23.07
2022-07-26T04:19:21.963Z,23.16
2022-07-26T04:24:42.575Z,23.14
2022-07-26T04:30:04.768Z,23.10
2022-07-26T04:35:26.072Z,23.07
2022-07-26T04:40:47.138Z,23.02
2022-07-26T04:46:09.457Z,23.11
2022-07-26T04:51:30.022Z,23.16
2022-07-26T04:56:50.808Z,23.10
2022-07-26T05:02:11.644Z,23.18
2022-07-26T05:07:47.720Z,23.27
2022-07-26T05:13:08.710Z,23.16
2022-07-26T05:18:31.963Z,23.15
2022-07-26T05:24:07.983Z,23.25
2022-07-26T05:29:28.829Z,23.20
2022-07-26T05:34:49.865Z,23.25
2022-07-26T05:40:11.857Z,23.22
2022-07-26T05:45:32.620Z,23.23
2022-07-26T05:50:53.195Z,23.22
2022-07-26T05:56:13.843Z,23.27
2022-07-26T06:01:35.076Z,23.19
2022-07-26T06:06:56.829Z,23.19
2022-07-26T06:12:17.710Z,23.13
2022-07-26T06:17:41.308Z,23.06
2022-07-26T06:23:02.010Z,23.06
2022-07-26T06:28:22.684Z,23.17
2022-07-26T06:33:43.244Z,23.14
2022-07-26T06:39:04.941Z,23.06
2022-07-26T06:44:26.492Z,22.96
2022-07-26T06:49:47.247Z,22.79
2022-07-26T06:55:09.177Z,22.71
2022-07-26T07:00:33.224Z,22.63
2022-07-26T07:05:53.783Z,22.50
2022-07-26T07:11:14.394Z,22.37
2022-07-26T07:16:38.606Z,22.28
2022-07-26T07:21:59.701Z,22.21
2022-07-26T07:27:20.982Z,22.32
2022-07-26T07:32:41.489Z,22.38
2022-07-26T07:38:02.079Z,22.37
2022-07-26T07:43:22.580Z,22.44
2022-07-26T07:48:47.397Z,22.57
2022-07-26T07:54:09.395Z,22.57
2022-07-26T07:59:30.299Z,22.48
2022-07-26T08:04:51.022Z,22.45
2022-07-26T08:10:11.683Z,22.46
2022-07-26T08:15:32.541Z,22.50
2022-07-26T08:20:53.771Z,22.69
2022-07-26T08:26:14.381Z,22.76
2022-07-26T08:31:35.120Z,22.73
2022-07-26T08:37:16.077Z,22.76
2022-07-26T08:42:36.905Z,22.75
2022-07-26T08:53:40.125Z,22.89
2022-07-26T08:59:18.585Z,23.06
2022-07-26T09:04:45.156Z,23.30
2022-07-26T09:10:09.458Z,23.51
2022-07-26T09:15:30.388Z,23.67
2022-07-26T09:20:51.272Z,23.73
2022-07-26T09:26:11.829Z,23.92
2022-07-26T09:31:33.106Z,23.81
2022-07-26T09:36:55.275Z,23.98
2022-07-26T09:42:28.489Z,24.10
2022-07-26T09:47:49.842Z,24.42
2022-07-26T09:53:13.246Z,24.70
2022-07-26T09:58:34.025Z,24.76
2022-07-26T10:03:55.250Z,24.81
2022-07-26T10:09:17.190Z,24.61
2022-07-26T10:14:45.874Z,24.50
2022-07-26T10:20:16.901Z,24.84
2022-07-26T10:25:49.114Z,25.08
2022-07-26T10:31:25.970Z,25.33
2022-07-26T10:36:57.825Z,25.35
2022-07-26T10:42:19.771Z,25.23
2022-07-26T10:48:15.603Z,25.18
2022-07-26T10:53:36.584Z,25.39
2022-07-26T10:58:57.555Z,25.44
2022-07-26T11:04:24.690Z,25.45
2022-07-26T11:09:45.420Z,25.17
2022-07-26T11:15:19.263Z,25.09
2022-07-26T11:20:41.145Z,25.04
2022-07-26T11:26:04.603Z,25.14
2022-07-26T11:31:49.412Z,25.24
2022-07-26T11:37:16.200Z,25.18
2022-07-26T11:42:37.288Z,25.24
2022-07-26T11:47:59.017Z,24.99
2022-07-26T11:53:23.263Z,25.02
2022-07-26T11:58:46.322Z,25.13
2022-07-26T12:04:19.492Z,25.34
2022-07-26T12:09:50.443Z,25.45
2022-07-26T12:15:12.592Z,25.51
2022-07-26T12:20:33.569Z,25.54
2022-07-26T12:25:54.208Z,25.60
2022-07-26T12:31:32.939Z,25.48
2022-07-26T12:36:54.010Z,25.34
2022-07-26T12:42:33.062Z,25.17
2022-07-26T12:47:57.136Z,25.02
2022-07-26T12:53:17.997Z,25.04
2022-07-26T12:58:38.666Z,25.36
2022-07-26T13:04:00.135Z,25.59
2022-07-26T13:09:20.862Z,25.69
2022-07-26T13:14:42.258Z,25.68
2022-07-26T13:20:02.891Z,25.63
2022-07-26T13:25:23.745Z,25.75
2022-07-26T13:30:45.898Z,25.68
2022-07-26T13:36:06.661Z,25.59
2022-07-26T13:41:27.530Z,25.71
2022-07-26T13:46:51.739Z,25.89
2022-07-26T13:52:16.674Z,25.82
2022-07-26T13:57:48.030Z,25.88
2022-07-26T14:03:17.463Z,25.83
2022-07-26T14:08:38.618Z,25.62
2022-07-26T14:13:59.356Z,25.64
2022-07-26T14:19:20.097Z,25.68
2022-07-26T14:24:40.916Z,25.69
2022-07-26T14:30:02.480Z,25.71
2022-07-26T14:35:23.054Z,25.75
2022-07-26T14:40:43.710Z,25.79
2022-07-26T14:46:04.866Z,25.75
2022-07-26T14:51:25.678Z,25.80
2022-07-26T14:56:48.213Z,25.87
2022-07-26T15:02:11.876Z,25.89
2022-07-26T15:07:32.697Z,25.80
2022-07-26T15:12:53.703Z,25.71
2022-07-26T15:18:14.420Z,25.76
2022-07-26T15:23:35.110Z,25.83
2022-07-26T15:28:56.052Z,25.75
2022-07-26T15:34:16.796Z,25.58
2022-07-26T15:39:37.474Z,25.55
2022-07-26T15:44:58.550Z,25.58
2022-07-26T15:50:19.193Z,25.52
2022-07-26T15:55:40.782Z,25.53
2022-07-26T16:01:01.625Z,25.64
2022-07-26T16:06:22.365Z,25.61
2022-07-26T16:11:43.029Z,25.65
2022-07-26T16:17:03.991Z,25.69
2022-07-26T16:22:25.052Z,25.76
2022-07-26T16:27:46.080Z,25.73
2022-07-26T16:33:06.894Z,25.67
2022-07-26T16:38:27.436Z,25.65
2022-07-26T16:43:48.101Z,25.60
2022-07-26T16:49:09.216Z,25.60
2022-07-26T16:54:31.143Z,25.60
2022-07-26T16:59:51.683Z,25.60
2022-07-26T17:05:12.448Z,25.53
2022-07-26T17:10:33.116Z,25.50
2022-07-26T17:15:54.257Z,25.43
2022-07-26T17:21:15.127Z,25.36
2022-07-26T17:26:36.465Z,25.25
2022-07-26T17:31:58.171Z,25.09
2022-07-26T17:37:18.772Z,25.01
2022-07-26T17:42:42.678Z,25.00
2022-07-26T17:48:06.397Z,24.92
2022-07-26T17:53:34.151Z,24.86
2022-07-26T17:58:55.906Z,24.80
2022-07-26T18:04:18.007Z,24.74
2022-07-26T18:09:38.672Z,24.66
2022-07-26T18:14:59.410Z,24.50
2022-07-26T18:20:20.127Z,24.31
2022-07-26T18:25:45.304Z,24.15
2022-07-26T18:31:06.180Z,24.11
2022-07-26T18:36:31.712Z,23.94
2022-07-26T18:41:52.340Z,23.81
2022-07-26T18:47:13.026Z,23.82
2022-07-26T18:52:33.893Z,23.75
2022-07-26T18:57:55.008Z,23.70
2022-07-26T19:03:16.696Z,23.70
2022-07-26T19:08:37.364Z,23.65
2022-07-26T19:13:58.033Z,23.59
2022-07-26T19:19:20.248Z,23.57
2022-07-26T19:24:40.922Z,23.43
2022-07-26T19:30:01.778Z,23.31
2022-07-26T19:35:23.007Z,23.19
2022-07-26T19:40:44.678Z,23.12
2022-07-26T19:46:05.830Z,23.11
2022-07-26T19:51:26.727Z,23.04
2022-07-26T19:56:47.725Z,22.98
2022-07-26T20:02:08.329Z,22.94
2022-07-26T20:07:29.406Z,22.88
2022-07-26T20:12:50.114Z,22.90
2022-07-26T20:18:10.926Z,22.80
2022-07-26T20:23:33.133Z,22.72
2022-07-26T20:28:55.332Z,22.66
2022-07-26T20:34:16.156Z,22.64
2022-07-26T20:39:36.864Z,22.65
2022-07-26T20:44:57.592Z,22.65
2022-07-26T20:50:19.171Z,22.63
2022-07-26T20:55:40.875Z,22.61
2022-07-26T21:01:01.666Z,22.49
2022-07-26T21:06:22.280Z,22.49
2022-07-26T21:11:45.508Z,22.44
2022-07-26T21:17:11.297Z,22.39
2022-07-26T21:22:33.308Z,22.36
2022-07-26T21:27:54.006Z,22.28
2022-07-26T21:33:14.970Z,22.29
2022-07-26T21:38:35.691Z,22.16
2022-07-26T21:43:56.195Z,22.11
2022-07-26T21:49:18.433Z,21.96
2022-07-26T21:54:39.161Z,21.95
2022-07-26T21:59:59.954Z,21.96
2022-07-26T22:05:35.750Z,21.87
2022-07-26T22:10:56.617Z,21.82
2022-07-26T22:16:17.535Z,21.64
2022-07-26T22:21:38.570Z,21.47
2022-07-26T22:26:59.495Z,21.36
2022-07-26T22:32:20.397Z,21.32
2022-07-26T22:37:41.510Z,21.17
2022-07-26T22:43:02.967Z,21.02
2022-07-26T22:48:23.900Z,21.03
2022-07-26T22:53:44.789Z,21.04
2022-07-26T22:59:05.456Z,21.06
2022-07-26T23:04:26.007Z,21.01
2022-07-26T23:09:48.656Z,20.96
2022-07-26T23:15:10.431Z,20.93
2022-07-26T23:20:31.105Z,20.97
2022-07-26T23:25:51.839Z,20.99
2022-07-26T23:31:14.705Z,21.04
2022-07-26T23:36:35.407Z,21.08
2022-07-26T23:41:56.335Z,21.05
2022-07-26T23:47:17.245Z,20.95
2022-07-26T23:52:38.291Z,20.86
2022-07-26T23:57:58.968Z,20.76
